Tancred — LALX4 — position and weather

sailwx.info

Track history (hours):
 
Tides and Currents Weather Stations Pressure Air Temp Water Temp Dewpoint Dewpoint Depression Visibility Wind Speed Wind Dir Waves Ship Positions

Tancred

Last reported at 2014-Jul-22 14:33 UTC. Time now 2014-Jul-22 15:26 UTC.
Position N 37°21' W 009°43'.

Length 190 m; draft 9.2 m.

Type: Cargo ship. MMSI: 258787000.

Date/timePositionNaut miles runAvg speedWind from/ knotsBaromVisibWave heightAir tempDewpointWater temp
2014-Jul-22 14:33N 37°21' W 009°43'1515.2
2014-Jul-22 13:33N 37°35' W 009°47'1515.2
2014-Jul-22 12:33N 37°50' W 009°51'1515.4
2014-Jul-22 11:33N 38°05' W 009°56'1615.5
2014-Jul-22 10:33N 38°20' W 010°00'1514.9
2014-Jul-22 09:33N 38°35' W 010°04'1515.0
2014-Jul-22 08:33N 38°50' W 010°07'1514.8
2014-Jul-22 07:33N 39°05' W 010°07'1515.0
2014-Jul-22 06:33N 39°19' W 010°07'2315.4
2014-Jul-22 05:03N 39°43' W 010°06'1315.3
2014-Jul-22 04:13N 39°55' W 010°05'1315.4
2014-Jul-22 03:23N 40°08' W 010°06'1315.6
2014-Jul-22 02:34N 40°21' W 010°06'2115.4
2014-Jul-22 01:13N 40°42' W 010°06'64913.9
2014-Jul-20 02:33N 50°03' W 002°25'2411.9
2014-Jul-20 00:33N 50°10' W 001°49'1312.5
2014-Jul-19 23:32N 50°14' W 001°30'1414.2
2014-Jul-19 22:33N 50°18' W 001°10'2216.1
2014-Jul-19 21:13N 50°24' W 000°37'1015.7
2014-Jul-19 20:33N 50°28' W 000°22'1615.7
2014-Jul-19 19:33N 50°32' E 000°02'1515.3
2014-Jul-19 18:33N 50°36' E 000°25'1414.2
2014-Jul-19 17:33N 50°42' E 000°46'1413.6
2014-Jul-19 16:33N 50°50' E 001°03'1312.9
2014-Jul-19 15:33N 50°59' E 001°18'1414.6
2014-Jul-19 14:34N 51°08' E 001°35'1616.0
2014-Jul-19 13:33N 51°20' E 001°52'1716.5
2014-Jul-19 12:34N 51°34' E 002°06'1615.9
2014-Jul-19 11:33N 51°46' E 002°24'1515.1
2014-Jul-19 10:33N 51°57' E 002°40'1514.3
2014-Jul-19 09:29N 52°09' E 002°56'1713.6
2014-Jul-19 08:15N 52°23' E 003°12'1313.3
2014-Jul-19 07:16N 52°33' E 003°25'1013.2
2014-Jul-19 06:32N 52°41' E 003°35'1414.2
2014-Jul-19 05:34N 52°51' E 003°50'1515.2
2014-Jul-19 04:33N 53°02' E 004°07'1515.2
2014-Jul-19 03:34N 53°13' E 004°25'1514.6
2014-Jul-19 02:33N 53°26' E 004°35'1413.7
2014-Jul-19 01:33N 53°33' E 004°56'1313.4
2014-Jul-19 00:34N 53°37' E 005°17'1313.1
2014-Jul-18 23:33N 53°41' E 005°38'1313.3
2014-Jul-18 22:33N 53°46' E 005°59'1413.8
2014-Jul-18 21:33N 53°49' E 006°22'1414.2
2014-Jul-18 20:33N 53°53' E 006°45'1514.6
2014-Jul-18 19:33N 53°56' E 007°09'1414.3
2014-Jul-18 18:33N 53°59' E 007°33'1111.6
2014-Jul-18 17:33N 53°53' E 007°50'1312.5
2014-Jul-18 16:33N 53°47' E 008°09'1110.5
2014-Jul-18 15:33N 53°40' E 008°23'8 8.1
2014-Jul-18 14:33N 53°34' E 008°32'1 0.7
2014-Jul-18 13:33N 53°34' E 008°33'1 0.5
2014-Jul-18 12:31N 53°35' E 008°33'0 0.0
2014-Jul-18 11:31N 53°35' E 008°33'0 0.0
2014-Jul-18 10:31N 53°35' E 008°33'0 0.0
2014-Jul-18 09:31N 53°35' E 008°33'0 0.0
2014-Jul-18 08:31N 53°35' E 008°33'0 0.0
2014-Jul-18 07:31N 53°35' E 008°33'0 0.0
2014-Jul-18 06:31N 53°35' E 008°33'0 0.0
2014-Jul-18 05:31N 53°35' E 008°33'0 0.0
2014-Jul-18 04:31N 53°35' E 008°33'0 0.0
2014-Jul-18 03:31N 53°35' E 008°33'0 0.0
2014-Jul-18 02:31N 53°35' E 008°33'0 0.0
2014-Jul-18 01:31N 53°35' E 008°33'0 0.0
2014-Jul-18 00:31N 53°35' E 008°33'0 0.0
2014-Jul-17 23:31N 53°35' E 008°33'0 0.0
2014-Jul-17 22:31N 53°35' E 008°33'0 0.0
2014-Jul-17 21:31N 53°35' E 008°33'0 0.0
2014-Jul-17 20:31N 53°35' E 008°33'0 0.0
2014-Jul-17 19:31N 53°35' E 008°33'0 0.0
2014-Jul-17 18:31N 53°35' E 008°33'0 0.0
2014-Jul-17 17:28N 53°35' E 008°33'0 0.0
2014-Jul-17 16:31N 53°35' E 008°33'0 0.0
2014-Jul-17 15:31N 53°35' E 008°33'0 0.0
2014-Jul-17 14:31N 53°35' E 008°33'0 0.0
2014-Jul-17 13:31N 53°35' E 008°33'0 0.0
2014-Jul-17 12:31N 53°35' E 008°33'0 0.0
2014-Jul-17 11:31N 53°35' E 008°33'0 0.0
2014-Jul-17 10:31N 53°35' E 008°33'0 0.0
2014-Jul-17 09:31N 53°35' E 008°33'0 0.0
2014-Jul-17 08:31N 53°35' E 008°33'0 0.0
2014-Jul-17 07:31N 53°35' E 008°33'0 0.0
2014-Jul-17 06:31N 53°35' E 008°33'0 0.0
2014-Jul-17 05:31N 53°35' E 008°33'0 0.0
2014-Jul-17 04:31N 53°35' E 008°33'0 0.0
2014-Jul-17 03:31N 53°35' E 008°33'0 0.0
2014-Jul-17 02:31N 53°35' E 008°33'0 0.0
2014-Jul-17 01:31N 53°35' E 008°33'0 0.0
2014-Jul-17 00:31N 53°35' E 008°33'0 0.0
2014-Jul-16 23:31N 53°35' E 008°33'0 0.0
2014-Jul-16 22:31N 53°35' E 008°33'0 0.0
2014-Jul-16 21:31N 53°35' E 008°33'0 0.0
2014-Jul-16 20:31N 53°35' E 008°33'0 0.0
2014-Jul-16 19:31N 53°35' E 008°33'0 0.0
2014-Jul-16 18:31N 53°35' E 008°33'0 0.0
2014-Jul-16 17:31N 53°35' E 008°33'0 0.0
2014-Jul-16 16:31N 53°35' E 008°33'0 0.0
2014-Jul-16 15:31N 53°35' E 008°33'0 0.0
2014-Jul-16 14:31N 53°35' E 008°33'0 0.0
2014-Jul-16 13:31N 53°35' E 008°33'0 0.0
2014-Jul-16 12:31N 53°35' E 008°33'0 0.0
2014-Jul-16 11:28N 53°35' E 008°33'0 0.0
2014-Jul-16 10:31N 53°35' E 008°33'0 0.0
2014-Jul-16 09:31N 53°35' E 008°33'0 0.0
2014-Jul-16 08:31N 53°35' E 008°33'0 0.0
2014-Jul-16 07:31N 53°35' E 008°33'0 0.0
2014-Jul-16 06:31N 53°35' E 008°33'0 0.0
2014-Jul-16 05:31N 53°35' E 008°33'0 0.0
2014-Jul-16 04:31N 53°35' E 008°33'0 0.0
2014-Jul-16 03:31N 53°35' E 008°33'0 0.0
2014-Jul-16 02:31N 53°35' E 008°33'0 0.0
2014-Jul-16 01:31N 53°35' E 008°33'0 0.0
2014-Jul-16 00:31N 53°35' E 008°33'0 0.0
2014-Jul-15 23:31N 53°35' E 008°33'0 0.0
2014-Jul-15 22:31N 53°35' E 008°33'0 0.0
2014-Jul-15 21:31N 53°35' E 008°33'0 0.0
2014-Jul-15 20:31N 53°35' E 008°33'0 0.0
2014-Jul-15 19:31N 53°35' E 008°33'0 0.5
2014-Jul-15 18:33N 53°34' E 008°33'1 1.2
2014-Jul-15 17:33N 53°35' E 008°32'1010.1
2014-Jul-15 16:33N 53°42' E 008°20'1313.2
2014-Jul-15 15:33N 53°51' E 008°02'1211.8
2014-Jul-15 14:33N 53°54' E 007°43'2 0.5
2014-Jul-15 09:29N 53°54' E 007°47'5 5.0
2014-Jul-15 08:33N 53°55' E 007°39'18 8.7
2014-Jul-15 06:32N 53°51' E 007°10'7 6.7
2014-Jul-15 05:33N 53°50' E 006°59'15 6.6
2014-Jul-15 03:19N 53°47' E 006°34'5 6.4
2014-Jul-15 02:30N 53°46' E 006°26'9 8.5
2014-Jul-15 01:29N 53°43' E 006°12'1313.9
2014-Jul-15 00:33N 53°39' E 005°52'1414.3
2014-Jul-14 23:33N 53°34' E 005°29'1514.5
2014-Jul-14 22:33N 53°30' E 005°06'1514.8
2014-Jul-14 21:33N 53°24' E 004°43'1515.2
2014-Jul-14 20:33N 53°10' E 004°31'1515.0
2014-Jul-14 19:33N 52°57' E 004°19'1515.4
2014-Jul-14 18:33N 52°44' E 004°05'1615.7
2014-Jul-14 17:33N 52°33' E 003°48'6716.3
2014-Jul-14 13:28N 51°44' E 002°33'1516.3
2014-Jul-14 12:34N 51°33' E 002°18'1514.7
2014-Jul-14 11:33N 51°20' E 002°07'1312.7
2014-Jul-14 10:33N 51°10' E 001°54'1212.3
2014-Jul-14 09:33N 51°02' E 001°40'1111.3
2014-Jul-14 08:33N 50°54' E 001°27'1211.9
2014-Jul-14 07:33N 50°42' E 001°21'1813.0
2014-Jul-14 06:10N 50°30' E 001°00'913.4
2014-Jul-14 05:32N 50°28' E 000°47'1513.3
2014-Jul-14 04:25N 50°23' E 000°25'1213.1
2014-Jul-14 03:29N 50°20' E 000°07'4313.3
2014-Jul-14 00:14N 50°10' W 000°59'1115.5
2014-Jul-13 23:33N 50°07' W 001°15'  
Track history (hours):
 
Tides and Currents Weather Stations Pressure Air Temp Water Temp Dewpoint Dewpoint Depression Visibility Wind Speed Wind Dir Waves Ship Positions

Tancred

Last reported at 2014-Jul-22 14:33 UTC. Time now 2014-Jul-22 15:26 UTC.
Position N 37°21' W 009°43'.

Length 190 m; draft 9.2 m.

Type: Cargo ship. MMSI: 258787000.

Date/timePositionNaut miles runAvg speedWind from/ knotsBaromVisibWave heightAir tempDewpointWater temp
2014-Jul-22 14:33N 37°21' W 009°43'1515.2
2014-Jul-22 13:33N 37°35' W 009°47'1515.2
2014-Jul-22 12:33N 37°50' W 009°51'1515.4
2014-Jul-22 11:33N 38°05' W 009°56'1615.5
2014-Jul-22 10:33N 38°20' W 010°00'1514.9
2014-Jul-22 09:33N 38°35' W 010°04'1515.0
2014-Jul-22 08:33N 38°50' W 010°07'1514.8
2014-Jul-22 07:33N 39°05' W 010°07'1515.0
2014-Jul-22 06:33N 39°19' W 010°07'2315.4
2014-Jul-22 05:03N 39°43' W 010°06'1315.3
2014-Jul-22 04:13N 39°55' W 010°05'1315.4
2014-Jul-22 03:23N 40°08' W 010°06'1315.6
2014-Jul-22 02:34N 40°21' W 010°06'2115.4
2014-Jul-22 01:13N 40°42' W 010°06'64913.9
2014-Jul-20 02:33N 50°03' W 002°25'2411.9
2014-Jul-20 00:33N 50°10' W 001°49'1312.5
2014-Jul-19 23:32N 50°14' W 001°30'1414.2
2014-Jul-19 22:33N 50°18' W 001°10'2216.1
2014-Jul-19 21:13N 50°24' W 000°37'1015.7
2014-Jul-19 20:33N 50°28' W 000°22'1615.7
2014-Jul-19 19:33N 50°32' E 000°02'1515.3
2014-Jul-19 18:33N 50°36' E 000°25'1414.2
2014-Jul-19 17:33N 50°42' E 000°46'1413.6
2014-Jul-19 16:33N 50°50' E 001°03'1312.9
2014-Jul-19 15:33N 50°59' E 001°18'1414.6
2014-Jul-19 14:34N 51°08' E 001°35'1616.0
2014-Jul-19 13:33N 51°20' E 001°52'1716.5
2014-Jul-19 12:34N 51°34' E 002°06'1615.9
2014-Jul-19 11:33N 51°46' E 002°24'1515.1
2014-Jul-19 10:33N 51°57' E 002°40'1514.3
2014-Jul-19 09:29N 52°09' E 002°56'1713.6
2014-Jul-19 08:15N 52°23' E 003°12'1313.3
2014-Jul-19 07:16N 52°33' E 003°25'1013.2
2014-Jul-19 06:32N 52°41' E 003°35'1414.2
2014-Jul-19 05:34N 52°51' E 003°50'1515.2
2014-Jul-19 04:33N 53°02' E 004°07'1515.2
2014-Jul-19 03:34N 53°13' E 004°25'1514.6
2014-Jul-19 02:33N 53°26' E 004°35'1413.7
2014-Jul-19 01:33N 53°33' E 004°56'1313.4
2014-Jul-19 00:34N 53°37' E 005°17'1313.1
2014-Jul-18 23:33N 53°41' E 005°38'1313.3
2014-Jul-18 22:33N 53°46' E 005°59'1413.8
2014-Jul-18 21:33N 53°49' E 006°22'1414.2
2014-Jul-18 20:33N 53°53' E 006°45'1514.6
2014-Jul-18 19:33N 53°56' E 007°09'1414.3
2014-Jul-18 18:33N 53°59' E 007°33'1111.6
2014-Jul-18 17:33N 53°53' E 007°50'1312.5
2014-Jul-18 16:33N 53°47' E 008°09'1110.5
2014-Jul-18 15:33N 53°40' E 008°23'8 8.1
2014-Jul-18 14:33N 53°34' E 008°32'1 0.7
2014-Jul-18 13:33N 53°34' E 008°33'1 0.5
2014-Jul-18 12:31N 53°35' E 008°33'0 0.0
2014-Jul-18 11:31N 53°35' E 008°33'0 0.0
2014-Jul-18 10:31N 53°35' E 008°33'0 0.0
2014-Jul-18 09:31N 53°35' E 008°33'0 0.0
2014-Jul-18 08:31N 53°35' E 008°33'0 0.0
2014-Jul-18 07:31N 53°35' E 008°33'0 0.0
2014-Jul-18 06:31N 53°35' E 008°33'0 0.0
2014-Jul-18 05:31N 53°35' E 008°33'0 0.0
2014-Jul-18 04:31N 53°35' E 008°33'0 0.0
2014-Jul-18 03:31N 53°35' E 008°33'0 0.0
2014-Jul-18 02:31N 53°35' E 008°33'0 0.0
2014-Jul-18 01:31N 53°35' E 008°33'0 0.0
2014-Jul-18 00:31N 53°35' E 008°33'0 0.0
2014-Jul-17 23:31N 53°35' E 008°33'0 0.0
2014-Jul-17 22:31N 53°35' E 008°33'0 0.0
2014-Jul-17 21:31N 53°35' E 008°33'0 0.0
2014-Jul-17 20:31N 53°35' E 008°33'0 0.0
2014-Jul-17 19:31N 53°35' E 008°33'0 0.0
2014-Jul-17 18:31N 53°35' E 008°33'0 0.0
2014-Jul-17 17:28N 53°35' E 008°33'0 0.0
2014-Jul-17 16:31N 53°35' E 008°33'0 0.0
2014-Jul-17 15:31N 53°35' E 008°33'0 0.0
2014-Jul-17 14:31N 53°35' E 008°33'0 0.0
2014-Jul-17 13:31N 53°35' E 008°33'0 0.0
2014-Jul-17 12:31N 53°35' E 008°33'0 0.0
2014-Jul-17 11:31N 53°35' E 008°33'0 0.0
2014-Jul-17 10:31N 53°35' E 008°33'0 0.0
2014-Jul-17 09:31N 53°35' E 008°33'0 0.0
2014-Jul-17 08:31N 53°35' E 008°33'0 0.0
2014-Jul-17 07:31N 53°35' E 008°33'0 0.0
2014-Jul-17 06:31N 53°35' E 008°33'0 0.0
2014-Jul-17 05:31N 53°35' E 008°33'0 0.0
2014-Jul-17 04:31N 53°35' E 008°33'0 0.0
2014-Jul-17 03:31N 53°35' E 008°33'0 0.0
2014-Jul-17 02:31N 53°35' E 008°33'0 0.0
2014-Jul-17 01:31N 53°35' E 008°33'0 0.0
2014-Jul-17 00:31N 53°35' E 008°33'0 0.0
2014-Jul-16 23:31N 53°35' E 008°33'0 0.0
2014-Jul-16 22:31N 53°35' E 008°33'0 0.0
2014-Jul-16 21:31N 53°35' E 008°33'0 0.0
2014-Jul-16 20:31N 53°35' E 008°33'0 0.0
2014-Jul-16 19:31N 53°35' E 008°33'0 0.0
2014-Jul-16 18:31N 53°35' E 008°33'0 0.0
2014-Jul-16 17:31N 53°35' E 008°33'0 0.0
2014-Jul-16 16:31N 53°35' E 008°33'0 0.0
2014-Jul-16 15:31N 53°35' E 008°33'0 0.0
2014-Jul-16 14:31N 53°35' E 008°33'0 0.0
2014-Jul-16 13:31N 53°35' E 008°33'0 0.0
2014-Jul-16 12:31N 53°35' E 008°33'0 0.0
2014-Jul-16 11:28N 53°35' E 008°33'0 0.0
2014-Jul-16 10:31N 53°35' E 008°33'0 0.0
2014-Jul-16 09:31N 53°35' E 008°33'0 0.0
2014-Jul-16 08:31N 53°35' E 008°33'0 0.0
2014-Jul-16 07:31N 53°35' E 008°33'0 0.0
2014-Jul-16 06:31N 53°35' E 008°33'0 0.0
2014-Jul-16 05:31N 53°35' E 008°33'0 0.0
2014-Jul-16 04:31N 53°35' E 008°33'0 0.0
2014-Jul-16 03:31N 53°35' E 008°33'0 0.0
2014-Jul-16 02:31N 53°35' E 008°33'0 0.0
2014-Jul-16 01:31N 53°35' E 008°33'0 0.0
2014-Jul-16 00:31N 53°35' E 008°33'0 0.0
2014-Jul-15 23:31N 53°35' E 008°33'0 0.0
2014-Jul-15 22:31N 53°35' E 008°33'0 0.0
2014-Jul-15 21:31N 53°35' E 008°33'0 0.0
2014-Jul-15 20:31N 53°35' E 008°33'0 0.0
2014-Jul-15 19:31N 53°35' E 008°33'0 0.5
2014-Jul-15 18:33N 53°34' E 008°33'1 1.2
2014-Jul-15 17:33N 53°35' E 008°32'1010.1
2014-Jul-15 16:33N 53°42' E 008°20'1313.2
2014-Jul-15 15:33N 53°51' E 008°02'1211.8
2014-Jul-15 14:33N 53°54' E 007°43'2 0.5
2014-Jul-15 09:29N 53°54' E 007°47'5 5.0
2014-Jul-15 08:33N 53°55' E 007°39'18 8.7
2014-Jul-15 06:32N 53°51' E 007°10'7 6.7
2014-Jul-15 05:33N 53°50' E 006°59'15 6.6
2014-Jul-15 03:19N 53°47' E 006°34'5 6.4
2014-Jul-15 02:30N 53°46' E 006°26'9 8.5
2014-Jul-15 01:29N 53°43' E 006°12'1313.9
2014-Jul-15 00:33N 53°39' E 005°52'1414.3
2014-Jul-14 23:33N 53°34' E 005°29'1514.5
2014-Jul-14 22:33N 53°30' E 005°06'1514.8
2014-Jul-14 21:33N 53°24' E 004°43'1515.2
2014-Jul-14 20:33N 53°10' E 004°31'1515.0
2014-Jul-14 19:33N 52°57' E 004°19'1515.4
2014-Jul-14 18:33N 52°44' E 004°05'1615.7
2014-Jul-14 17:33N 52°33' E 003°48'6716.3
2014-Jul-14 13:28N 51°44' E 002°33'1516.3
2014-Jul-14 12:34N 51°33' E 002°18'1514.7
2014-Jul-14 11:33N 51°20' E 002°07'1312.7
2014-Jul-14 10:33N 51°10' E 001°54'1212.3
2014-Jul-14 09:33N 51°02' E 001°40'1111.3
2014-Jul-14 08:33N 50°54' E 001°27'1211.9
2014-Jul-14 07:33N 50°42' E 001°21'1813.0
2014-Jul-14 06:10N 50°30' E 001°00'913.4
2014-Jul-14 05:32N 50°28' E 000°47'1513.3
2014-Jul-14 04:25N 50°23' E 000°25'1213.1
2014-Jul-14 03:29N 50°20' E 000°07'4313.3
2014-Jul-14 00:14N 50°10' W 000°59'1115.5
2014-Jul-13 23:33N 50°07' W 001°15'  

Dump ship's entire track history